sensor_id;sensor_type;location;lat;lon;timestamp;pressure;altitude;pressure_sealevel;temperature;humidity
19624;BME280;9959;49.798;9.928;2023-11-19T00:01:08;99543.56;;;5.69;100.00
19624;BME280;9959;49.798;9.928;2023-11-19T00:03:35;99543.47;;;5.77;100.00
19624;BME280;9959;49.798;9.928;2023-11-19T00:06:02;99532.88;;;5.84;100.00
19624;BME280;9959;49.798;9.928;2023-11-19T00:08:31;99525.03;;;5.83;100.00
19624;BME280;9959;49.798;9.928;2023-11-19T00:10:58;99523.38;;;5.82;100.00
19624;BME280;9959;49.798;9.928;2023-11-19T00:13:24;99529.19;;;5.85;100.00
19624;BME280;9959;49.798;9.928;2023-11-19T00:15:52;99509.63;;;5.85;100.00
19624;BME280;9959;49.798;9.928;2023-11-19T00:18:19;99508.63;;;5.86;100.00
19624;BME280;9959;49.798;9.928;2023-11-19T00:20:47;99505.25;;;5.92;100.00
19624;BME280;9959;49.798;9.928;2023-11-19T00:23:14;99503.59;;;5.91;100.00
19624;BME280;9959;49.798;9.928;2023-11-19T00:25:41;99509.22;;;5.96;100.00
19624;BME280;9959;49.798;9.928;2023-11-19T00:28:08;99505.25;;;5.92;100.00
19624;BME280;9959;49.798;9.928;2023-11-19T00:30:35;99507.19;;;5.98;100.00
19624;BME280;9959;49.798;9.928;2023-11-19T00:33:02;99517.88;;;5.98;100.00
19624;BME280;9959;49.798;9.928;2023-11-19T00:35:29;99516.97;;;5.91;100.00
19624;BME280;9959;49.798;9.928;2023-11-19T00:37:56;99516.28;;;6.03;100.00
19624;BME280;9959;49.798;9.928;2023-11-19T00:40:22;99517.13;;;6.04;100.00
19624;BME280;9959;49.798;9.928;2023-11-19T00:42:49;99505.16;;;6.00;100.00
19624;BME280;9959;49.798;9.928;2023-11-19T00:45:16;99499.22;;;6.04;100.00
19624;BME280;9959;49.798;9.928;2023-11-19T00:47:43;99497.19;;;6.06;100.00
19624;BME280;9959;49.798;9.928;2023-11-19T00:50:10;99489.53;;;6.03;100.00
19624;BME280;9959;49.798;9.928;2023-11-19T00:52:38;99480.59;;;6.11;100.00
19624;BME280;9959;49.798;9.928;2023-11-19T00:55:05;99480.59;;;6.11;100.00
19624;BME280;9959;49.798;9.928;2023-11-19T00:57:34;99478.09;;;6.09;100.00
19624;BME280;9959;49.798;9.928;2023-11-19T01:00:03;99483.28;;;6.11;100.00
19624;BME280;9959;49.798;9.928;2023-11-19T01:02:36;99492.03;;;6.05;100.00
19624;BME280;9959;49.798;9.928;2023-11-19T01:05:03;99493.69;;;6.06;100.00
19624;BME280;9959;49.798;9.928;2023-11-19T01:07:30;99478.09;;;6.09;100.00
19624;BME280;9959;49.798;9.928;2023-11-19T01:09:57;99476.91;;;6.12;100.00
19624;BME280;9959;49.798;9.928;2023-11-19T01:12:24;99470.44;;;6.21;100.00
19624;BME280;9959;49.798;9.928;2023-11-19T01:14:51;99470.44;;;6.21;100.00
19624;BME280;9959;49.798;9.928;2023-11-19T01:17:18;99453.09;;;6.17;100.00
19624;BME280;9959;49.798;9.928;2023-11-19T01:19:45;99453.56;;;6.21;100.00
19624;BME280;9959;49.798;9.928;2023-11-19T01:22:12;99457.63;;;6.17;100.00
19624;BME280;9959;49.798;9.928;2023-11-19T01:24:39;99460.56;;;6.22;100.00
19624;BME280;9959;49.798;9.928;2023-11-19T01:27:06;99457.34;;;6.26;100.00
19624;BME280;9959;49.798;9.928;2023-11-19T01:29:33;99455.31;;;6.28;100.00
19624;BME280;9959;49.798;9.928;2023-11-19T01:31:59;99461.50;;;6.29;100.00
19624;BME280;9959;49.798;9.928;2023-11-19T01:34:26;99456.56;;;6.32;100.00
19624;BME280;9959;49.798;9.928;2023-11-19T01:36:53;99448.28;;;6.27;100.00
19624;BME280;9959;49.798;9.928;2023-11-19T01:39:20;99456.56;;;6.32;100.00
19624;BME280;9959;49.798;9.928;2023-11-19T01:41:47;99450.84;;;6.35;100.00
19624;BME280;9959;49.798;9.928;2023-11-19T01:44:14;99446.75;;;6.39;100.00
19624;BME280;9959;49.798;9.928;2023-11-19T01:46:44;99450.47;;;6.38;100.00
19624;BME280;9959;49.798;9.928;2023-11-19T01:49:15;99450.91;;;6.42;100.00
19624;BME280;9959;49.798;9.928;2023-11-19T01:51:42;99454.78;;;6.39;100.00
19624;BME280;9959;49.798;9.928;2023-11-19T01:54:10;99446.75;;;6.39;100.00
19624;BME280;9959;49.798;9.928;2023-11-19T01:56:38;99454.69;;;6.48;100.00
19624;BME280;9959;49.798;9.928;2023-11-19T01:59:09;99449.97;;;6.50;100.00
19624;BME280;9959;49.798;9.928;2023-11-19T02:01:38;99452.13;;;6.61;100.00
19624;BME280;9959;49.798;9.928;2023-11-19T02:04:08;99444.72;;;6.63;100.00
19624;BME280;9959;49.798;9.928;2023-11-19T02:06:40;99449.44;;;6.61;100.00
19624;BME280;9959;49.798;9.928;2023-11-19T02:09:10;99450.72;;;6.65;100.00
19624;BME280;9959;49.798;9.928;2023-11-19T02:11:39;99435.84;;;6.56;100.00
19624;BME280;9959;49.798;9.928;2023-11-19T02:14:06;99428.03;;;6.61;100.00
19624;BME280;9959;49.798;9.928;2023-11-19T02:16:33;99428.47;;;6.64;100.00
19624;BME280;9959;49.798;9.928;2023-11-19T02:19:01;99424.78;;;6.65;100.00
19624;BME280;9959;49.798;9.928;2023-11-19T02:21:28;99424.59;;;6.67;100.00
19624;BME280;9959;49.798;9.928;2023-11-19T02:23:55;99409.19;;;6.69;100.00
19624;BME280;9959;49.798;9.928;2023-11-19T02:27:19;99389.88;;;6.73;100.00
19624;BME280;9959;49.798;9.928;2023-11-19T02:29:47;99381.63;;;6.75;100.00
19624;BME280;9959;49.798;9.928;2023-11-19T02:32:15;99368.25;;;6.75;100.00
19624;BME280;9959;49.798;9.928;2023-11-19T02:34:42;99344.16;;;6.75;100.00
19624;BME280;9959;49.798;9.928;2023-11-19T02:37:09;99313.09;;;6.81;100.00
19624;BME280;9959;49.798;9.928;2023-11-19T02:39:36;99313.13;;;6.87;100.00
19624;BME280;9959;49.798;9.928;2023-11-19T02:42:03;99300.56;;;6.88;100.00
19624;BME280;9959;49.798;9.928;2023-11-19T02:44:30;99311.97;;;6.96;100.00
19624;BME280;9959;49.798;9.928;2023-11-19T02:46:57;99309.72;;;7.00;100.00
19624;BME280;9959;49.798;9.928;2023-11-19T02:49:26;99317.16;;;7.04;100.00
19624;BME280;9959;49.798;9.928;2023-11-19T02:51:53;99325.00;;;7.06;100.00
19624;BME280;9959;49.798;9.928;2023-11-19T02:54:20;99320.91;;;7.10;100.00
19624;BME280;9959;49.798;9.928;2023-11-19T02:56:48;99324.19;;;7.12;100.00
19624;BME280;9959;49.798;9.928;2023-11-19T02:59:21;99314.31;;;7.12;100.00
19624;BME280;9959;49.798;9.928;2023-11-19T03:01:54;99320.09;;;7.09;100.00
19624;BME280;9959;49.798;9.928;2023-11-19T03:04:22;99315.97;;;7.13;100.00
19624;BME280;9959;49.798;9.928;2023-11-19T03:06:49;99322.97;;;7.14;100.00
19624;BME280;9959;49.798;9.928;2023-11-19T03:09:16;99325.47;;;7.16;100.00
19624;BME280;9959;49.798;9.928;2023-11-19T03:11:43;99326.72;;;7.20;100.00
19624;BME280;9959;49.798;9.928;2023-11-19T03:14:10;99328.41;;;7.28;100.00
19624;BME280;9959;49.798;9.928;2023-11-19T03:16:37;99326.84;;;7.46;100.00
19624;BME280;9959;49.798;9.928;2023-11-19T03:19:04;99328.94;;;7.51;100.00
19624;BME280;9959;49.798;9.928;2023-11-19T03:21:31;99320.66;;;7.46;100.00
19624;BME280;9959;49.798;9.928;2023-11-19T03:23:58;99311.16;;;7.37;100.00
19624;BME280;9959;49.798;9.928;2023-11-19T03:26:28;99304.16;;;7.36;100.00
19624;BME280;9959;49.798;9.928;2023-11-19T03:28:55;99305.75;;;7.30;100.00
19624;BME280;9959;49.798;9.928;2023-11-19T03:31:23;99293.00;;;7.39;100.00
19624;BME280;9959;49.798;9.928;2023-11-19T03:33:51;99286.03;;;7.38;100.00
19624;BME280;9959;49.798;9.928;2023-11-19T03:36:20;99293.91;;;7.53;100.00
19624;BME280;9959;49.798;9.928;2023-11-19T03:38:47;99295.94;;;7.51;100.00
19624;BME280;9959;49.798;9.928;2023-11-19T03:41:15;99296.97;;;7.50;100.00
19624;BME280;9959;49.798;9.928;2023-11-19T03:43:42;99296.75;;;7.44;100.00
19624;BME280;9959;49.798;9.928;2023-11-19T03:46:19;99293.03;;;7.45;100.00
19624;BME280;9959;49.798;9.928;2023-11-19T03:48:47;99291.41;;;7.51;100.00
19624;BME280;9959;49.798;9.928;2023-11-19T03:51:14;99297.63;;;7.58;100.00
19624;BME280;9959;49.798;9.928;2023-11-19T03:53:46;99287.72;;;7.52;100.00
19624;BME280;9959;49.798;9.928;2023-11-19T03:56:13;99278.22;;;7.50;100.00
19624;BME280;9959;49.798;9.928;2023-11-19T03:58:40;99291.66;;;7.56;100.00
19624;BME280;9959;49.798;9.928;2023-11-19T04:01:11;99290.63;;;7.57;100.00
19624;BME280;9959;49.798;9.928;2023-11-19T04:03:40;99292.28;;;7.58;100.00
19624;BME280;9959;49.798;9.928;2023-11-19T04:06:16;99290.84;;;7.62;100.00
19624;BME280;9959;49.798;9.928;2023-11-19T04:08:43;99288.75;;;7.58;100.00
19624;BME280;9959;49.798;9.928;2023-11-19T04:11:11;99286.31;;;7.69;100.00
19624;BME280;9959;49.798;9.928;2023-11-19T04:13:38;99284.25;;;7.65;100.00
19624;BME280;9959;49.798;9.928;2023-11-19T04:16:05;99292.72;;;7.75;100.00
19624;BME280;9959;49.798;9.928;2023-11-19T04:18:32;99282.03;;;7.81;100.00
19624;BME280;9959;49.798;9.928;2023-11-19T04:20:59;99286.13;;;7.77;100.00
19624;BME280;9959;49.798;9.928;2023-11-19T04:23:26;99274.56;;;7.77;100.00
19624;BME280;9959;49.798;9.928;2023-11-19T04:25:53;99282.00;;;7.75;100.00
19624;BME280;9959;49.798;9.928;2023-11-19T04:28:19;99278.13;;;7.84;100.00
19624;BME280;9959;49.798;9.928;2023-11-19T04:30:46;99271.75;;;8.05;100.00
19624;BME280;9959;49.798;9.928;2023-11-19T04:33:13;99261.44;;;8.15;100.00
19624;BME280;9959;49.798;9.928;2023-11-19T04:35:41;99271.97;;;8.10;100.00
19624;BME280;9959;49.798;9.928;2023-11-19T04:38:08;99259.78;;;8.14;100.00
19624;BME280;9959;49.798;9.928;2023-11-19T04:40:35;99263.09;;;8.29;100.00
19624;BME280;9959;49.798;9.928;2023-11-19T04:43:03;99250.28;;;8.25;100.00
19624;BME280;9959;49.798;9.928;2023-11-19T04:45:30;99263.50;;;8.13;100.00
19624;BME280;9959;49.798;9.928;2023-11-19T04:47:56;99258.97;;;8.20;100.00
19624;BME280;9959;49.798;9.928;2023-11-19T04:50:23;99258.59;;;8.43;100.00
19624;BME280;9959;49.798;9.928;2023-11-19T04:52:52;99270.97;;;8.44;100.00
19624;BME280;9959;49.798;9.928;2023-11-19T04:55:22;99263.75;;;8.44;100.00
19624;BME280;9959;49.798;9.928;2023-11-19T04:57:49;99259.38;;;8.57;100.00
19624;BME280;9959;49.798;9.928;2023-11-19T05:00:16;99250.91;;;8.60;100.00
19624;BME280;9959;49.798;9.928;2023-11-19T05:02:43;99258.97;;;8.60;100.00
19624;BME280;9959;49.798;9.928;2023-11-19T05:05:10;99249.06;;;8.54;100.00
19624;BME280;9959;49.798;9.928;2023-11-19T05:07:38;99244.94;;;8.58;100.00
19624;BME280;9959;49.798;9.928;2023-11-19T05:10:05;99248.84;;;8.62;100.00
19624;BME280;9959;49.798;9.928;2023-11-19T05:12:33;99242.66;;;8.61;100.00
19624;BME280;9959;49.798;9.928;2023-11-19T05:15:00;99245.75;;;8.58;100.00
19624;BME280;9959;49.798;9.928;2023-11-19T05:17:27;99236.66;;;8.59;100.00
19624;BME280;9959;49.798;9.928;2023-11-19T05:19:54;99241.63;;;8.69;100.00
19624;BME280;9959;49.798;9.928;2023-11-19T05:22:21;99236.03;;;8.64;100.00
19624;BME280;9959;49.798;9.928;2023-11-19T05:24:48;99241.41;;;8.64;100.00
19624;BME280;9959;49.798;9.928;2023-11-19T05:27:16;99249.06;;;8.67;100.00
19624;BME280;9959;49.798;9.928;2023-11-19T05:29:43;99245.75;;;8.71;100.00
19624;BME280;9959;49.798;9.928;2023-11-19T05:32:10;99248.66;;;8.63;100.00
19624;BME280;9959;49.798;9.928;2023-11-19T05:34:38;99241.22;;;8.59;100.00
19624;BME280;9959;49.798;9.928;2023-11-19T05:37:17;99246.56;;;8.72;100.00
19624;BME280;9959;49.798;9.928;2023-11-19T05:39:45;99244.91;;;8.71;100.00
19624;BME280;9959;49.798;9.928;2023-11-19T05:42:12;99249.88;;;8.67;100.00
19624;BME280;9959;49.798;9.928;2023-11-19T05:44:39;99235.81;;;8.72;100.00
19624;BME280;9959;49.798;9.928;2023-11-19T05:47:07;99230.84;;;8.75;100.00
19624;BME280;9959;49.798;9.928;2023-11-19T05:49:35;99230.47;;;8.72;100.00
19624;BME280;9959;49.798;9.928;2023-11-19T05:52:05;99232.53;;;8.70;100.00
19624;BME280;9959;49.798;9.928;2023-11-19T05:54:34;99238.09;;;8.75;100.00
19624;BME280;9959;49.798;9.928;2023-11-19T05:57:05;99232.09;;;8.73;100.00
19624;BME280;9959;49.798;9.928;2023-11-19T05:59:31;99233.91;;;8.86;100.00
19624;BME280;9959;49.798;9.928;2023-11-19T06:01:59;99233.72;;;8.87;100.00
19624;BME280;9959;49.798;9.928;2023-11-19T06:04:26;99231.66;;;8.89;100.00
19624;BME280;9959;49.798;9.928;2023-11-19T06:06:53;99227.09;;;8.96;100.00
19624;BME280;9959;49.798;9.928;2023-11-19T06:09:21;99219.63;;;8.98;100.00
19624;BME280;9959;49.798;9.928;2023-11-19T06:11:51;99219.63;;;8.98;100.00
19624;BME280;9959;49.798;9.928;2023-11-19T06:14:19;99215.03;;;9.05;100.00
19624;BME280;9959;49.798;9.928;2023-11-19T06:16:46;99216.69;;;9.06;100.00
19624;BME280;9959;49.798;9.928;2023-11-19T06:19:13;99217.50;;;9.13;100.00
19624;BME280;9959;49.798;9.928;2023-11-19T06:21:40;99222.88;;;9.13;100.00
19624;BME280;9959;49.798;9.928;2023-11-19T06:24:07;99214.19;;;9.11;100.00
19624;BME280;9959;49.798;9.928;2023-11-19T06:26:35;99210.84;;;9.23;100.00
19624;BME280;9959;49.798;9.928;2023-11-19T06:29:02;99212.75;;;9.15;100.00
19624;BME280;9959;49.798;9.928;2023-11-19T06:31:29;99217.47;;;9.20;100.00
19624;BME280;9959;49.798;9.928;2023-11-19T06:33:56;99218.72;;;9.24;100.00
19624;BME280;9959;49.798;9.928;2023-11-19T06:36:23;99226.78;;;9.24;100.00
19624;BME280;9959;49.798;9.928;2023-11-19T06:38:50;99234.34;;;9.34;100.00
19624;BME280;9959;49.798;9.928;2023-11-19T06:41:17;99230.81;;;9.40;100.00
19624;BME280;9959;49.798;9.928;2023-11-19T06:43:46;99225.63;;;9.45;100.00
19624;BME280;9959;49.798;9.928;2023-11-19T06:46:17;99230.19;;;9.44;100.00
19624;BME280;9959;49.798;9.928;2023-11-19T06:48:44;99233.88;;;9.50;100.00
19624;BME280;9959;49.798;9.928;2023-11-19T06:51:12;99216.53;;;9.46;100.00
19624;BME280;9959;49.798;9.928;2023-11-19T06:53:39;99217.38;;;9.40;100.00
19624;BME280;9959;49.798;9.928;2023-11-19T06:56:23;99211.81;;;9.35;100.00
19624;BME280;9959;49.798;9.928;2023-11-19T06:58:51;99213.88;;;9.39;100.00
19624;BME280;9959;49.798;9.928;2023-11-19T07:01:19;99224.81;;;9.44;100.00
19624;BME280;9959;49.798;9.928;2023-11-19T07:03:47;99223.56;;;9.47;100.00
19624;BME280;9959;49.798;9.928;2023-11-19T07:06:15;99225.59;;;9.52;100.00
19624;BME280;9959;49.798;9.928;2023-11-19T07:08:42;99228.28;;;9.52;100.00
19624;BME280;9959;49.798;9.928;2023-11-19T07:11:14;99233.03;;;9.56;100.00
19624;BME280;9959;49.798;9.928;2023-11-19T07:13:43;99241.75;;;9.52;100.00
19624;BME280;9959;49.798;9.928;2023-11-19T07:16:10;99238.44;;;9.49;100.00
19624;BME280;9959;49.798;9.928;2023-11-19T07:18:37;99253.09;;;9.54;100.00
19624;BME280;9959;49.798;9.928;2023-11-19T07:21:04;99251.25;;;9.54;100.00
19624;BME280;9959;49.798;9.928;2023-11-19T07:23:31;99263.19;;;9.58;100.00
19624;BME280;9959;49.798;9.928;2023-11-19T07:25:59;99256.97;;;9.64;100.00
19624;BME280;9959;49.798;9.928;2023-11-19T07:28:26;99253.63;;;9.69;100.00
19624;BME280;9959;49.798;9.928;2023-11-19T07:30:55;99252.38;;;9.71;100.00
19624;BME280;9959;49.798;9.928;2023-11-19T07:33:25;99257.34;;;9.74;100.00
19624;BME280;9959;49.798;9.928;2023-11-19T07:35:52;99255.06;;;9.71;100.00
19624;BME280;9959;49.798;9.928;2023-11-19T07:38:19;99261.50;;;9.70;100.00
19624;BME280;9959;49.798;9.928;2023-11-19T07:40:46;99255.69;;;9.73;100.00
19624;BME280;9959;49.798;9.928;2023-11-19T07:43:17;99256.91;;;9.77;100.00
19624;BME280;9959;49.798;9.928;2023-11-19T07:45:44;99261.84;;;9.80;100.00
19624;BME280;9959;49.798;9.928;2023-11-19T07:48:12;99266.19;;;9.81;100.00
19624;BME280;9959;49.798;9.928;2023-11-19T07:50:40;99272.56;;;9.87;100.00
19624;BME280;9959;49.798;9.928;2023-11-19T07:53:10;99260.13;;;9.86;100.00
19624;BME280;9959;49.798;9.928;2023-11-19T07:55:39;99267.97;;;9.94;100.00
19624;BME280;9959;49.798;9.928;2023-11-19T07:58:08;99264.00;;;9.97;100.00
19624;BME280;9959;49.798;9.928;2023-11-19T08:00:35;99265.06;;;9.96;100.00
19624;BME280;9959;49.798;9.928;2023-11-19T08:03:02;99267.75;;;9.96;100.00
19624;BME280;9959;49.798;9.928;2023-11-19T08:05:30;99269.19;;;9.98;100.00
19624;BME280;9959;49.798;9.928;2023-11-19T08:07:57;99264.84;;;9.97;100.00
19624;BME280;9959;49.798;9.928;2023-11-19T08:10:25;99275.81;;;9.96;100.00
19624;BME280;9959;49.798;9.928;2023-11-19T08:12:51;99277.69;;;9.95;100.00
19624;BME280;9959;49.798;9.928;2023-11-19T08:15:18;99283.66;;;10.04;100.00
19624;BME280;9959;49.798;9.928;2023-11-19T08:17:57;99276.09;;;10.19;100.00
19624;BME280;9959;49.798;9.928;2023-11-19T08:20:25;99281.47;;;10.19;100.00
19624;BME280;9959;49.798;9.928;2023-11-19T08:22:52;99288.09;;;10.23;100.00
19624;BME280;9959;49.798;9.928;2023-11-19T08:25:19;99288.03;;;10.30;100.00
19624;BME280;9959;49.798;9.928;2023-11-19T08:27:46;99282.97;;;10.40;100.00
19624;BME280;9959;49.798;9.928;2023-11-19T08:30:13;99284.16;;;10.50;100.00
19624;BME280;9959;49.798;9.928;2023-11-19T08:32:40;99284.09;;;10.57;100.00
19624;BME280;9959;49.798;9.928;2023-11-19T08:35:08;99278.47;;;10.83;100.00
19624;BME280;9959;49.798;9.928;2023-11-19T08:37:35;99268.63;;;10.71;100.00
19624;BME280;9959;49.798;9.928;2023-11-19T08:40:03;99260.47;;;10.77;100.00
19624;BME280;9959;49.798;9.928;2023-11-19T08:42:31;99260.56;;;10.89;100.00
19624;BME280;9959;49.798;9.928;2023-11-19T08:45:00;99261.56;;;11.13;100.00
19624;BME280;9959;49.798;9.928;2023-11-19T08:47:27;99261.31;;;11.33;100.00
19624;BME280;9959;49.798;9.928;2023-11-19T08:49:54;99255.19;;;11.07;100.00
19624;BME280;9959;49.798;9.928;2023-11-19T08:52:24;99250.47;;;11.03;100.00
19624;BME280;9959;49.798;9.928;2023-11-19T08:54:51;99255.63;;;10.86;100.00
19624;BME280;9959;49.798;9.928;2023-11-19T08:57:18;99258.56;;;10.84;100.00
19624;BME280;9959;49.798;9.928;2023-11-19T08:59:46;99263.28;;;11.07;100.00
19624;BME280;9959;49.798;9.928;2023-11-19T09:02:13;99271.47;;;11.49;100.00
19624;BME280;9959;49.798;9.928;2023-11-19T09:04:40;99286.00;;;11.84;100.00
19624;BME280;9959;49.798;9.928;2023-11-19T09:07:08;99272.47;;;12.03;100.00
19624;BME280;9959;49.798;9.928;2023-11-19T09:09:36;99269.03;;;11.96;100.00
19624;BME280;9959;49.798;9.928;2023-11-19T09:12:03;99263.09;;;12.17;100.00
19624;BME280;9959;49.798;9.928;2023-11-19T09:14:31;99273.28;;;12.57;100.00
19624;BME280;9959;49.798;9.928;2023-11-19T09:16:58;99280.06;;;12.47;100.00
19624;BME280;9959;49.798;9.928;2023-11-19T09:19:24;99268.81;;;12.85;100.00
19624;BME280;9959;49.798;9.928;2023-11-19T09:21:53;99267.41;;;12.83;100.00
19624;BME280;9959;49.798;9.928;2023-11-19T09:24:21;99260.69;;;12.85;100.00
19624;BME280;9959;49.798;9.928;2023-11-19T09:26:48;99272.66;;;13.01;100.00
19624;BME280;9959;49.798;9.928;2023-11-19T09:29:15;99256.78;;;13.05;100.00
19624;BME280;9959;49.798;9.928;2023-11-19T09:31:43;99267.38;;;13.30;100.00
19624;BME280;9959;49.798;9.928;2023-11-19T09:34:10;99268.44;;;13.17;100.00
19624;BME280;9959;49.798;9.928;2023-11-19T09:36:37;99267.78;;;13.50;100.00
19624;BME280;9959;49.798;9.928;2023-11-19T09:39:04;99273.56;;;13.42;100.00
19624;BME280;9959;49.798;9.928;2023-11-19T09:41:35;99272.34;;;13.61;100.00
19624;BME280;9959;49.798;9.928;2023-11-19T09:44:02;99264.31;;;13.95;100.00
19624;BME280;9959;49.798;9.928;2023-11-19T09:46:29;99265.47;;;13.99;100.00
19624;BME280;9959;49.798;9.928;2023-11-19T09:48:57;99258.22;;;13.87;100.00
19624;BME280;9959;49.798;9.928;2023-11-19T09:51:26;99263.53;;;14.11;100.00
19624;BME280;9959;49.798;9.928;2023-11-19T09:53:53;99252.31;;;13.91;100.00
19624;BME280;9959;49.798;9.928;2023-11-19T09:56:20;99259.47;;;13.68;100.00
19624;BME280;9959;49.798;9.928;2023-11-19T09:58:49;99248.94;;;13.55;100.00
19624;BME280;9959;49.798;9.928;2023-11-19T10:01:19;99257.16;;;13.88;100.00
19624;BME280;9959;49.798;9.928;2023-11-19T10:03:55;99253.75;;;13.53;100.00
19624;BME280;9959;49.798;9.928;2023-11-19T10:06:24;99260.03;;;13.42;100.00
19624;BME280;9959;49.798;9.928;2023-11-19T10:08:54;99249.91;;;13.49;100.00
19624;BME280;9959;49.798;9.928;2023-11-19T10:11:25;99251.25;;;13.35;100.00
19624;BME280;9959;49.798;9.928;2023-11-19T10:13:53;99263.38;;;13.20;100.00
19624;BME280;9959;49.798;9.928;2023-11-19T10:16:20;99250.31;;;13.17;100.00
19624;BME280;9959;49.798;9.928;2023-11-19T10:18:49;99257.22;;;13.13;100.00
19624;BME280;9959;49.798;9.928;2023-11-19T10:21:18;99263.84;;;13.17;100.00
19624;BME280;9959;49.798;9.928;2023-11-19T10:23:49;99267.22;;;13.13;100.00
19624;BME280;9959;49.798;9.928;2023-11-19T10:26:20;99263.72;;;13.12;100.00
19624;BME280;9959;49.798;9.928;2023-11-19T10:28:47;99265.25;;;13.08;100.00
19624;BME280;9959;49.798;9.928;2023-11-19T10:31:19;99269.13;;;13.01;100.00
19624;BME280;9959;49.798;9.928;2023-11-19T10:33:47;99266.69;;;12.99;100.00
19624;BME280;9959;49.798;9.928;2023-11-19T10:36:16;99267.13;;;12.96;100.00
19624;BME280;9959;49.798;9.928;2023-11-19T10:38:53;99259.63;;;12.98;100.00
19624;BME280;9959;49.798;9.928;2023-11-19T10:41:30;99272.59;;;15.87;92.71
19624;BME280;9959;49.798;9.928;2023-11-19T10:43:59;99251.69;;;16.79;76.84
19624;BME280;9959;49.798;9.928;2023-11-19T10:46:39;99254.06;;;14.42;92.87
19624;BME280;9959;49.798;9.928;2023-11-19T10:49:08;99257.25;;;13.37;100.00
19624;BME280;9959;49.798;9.928;2023-11-19T10:51:35;99254.44;;;13.32;100.00
19624;BME280;9959;49.798;9.928;2023-11-19T10:54:04;99262.56;;;13.20;100.00
19624;BME280;9959;49.798;9.928;2023-11-19T10:56:33;99253.28;;;13.04;100.00
19624;BME280;9959;49.798;9.928;2023-11-19T10:59:02;99250.91;;;12.96;100.00
19624;BME280;9959;49.798;9.928;2023-11-19T11:01:50;99249.88;;;12.97;100.00
19624;BME280;9959;49.798;9.928;2023-11-19T11:04:24;99240.69;;;12.86;100.00
19624;BME280;9959;49.798;9.928;2023-11-19T11:06:54;99236.00;;;12.70;100.00
19624;BME280;9959;49.798;9.928;2023-11-19T11:09:29;99228.50;;;12.72;100.00
19624;BME280;9959;49.798;9.928;2023-11-19T11:11:57;99226.50;;;12.68;100.00
19624;BME280;9959;49.798;9.928;2023-11-19T11:14:26;99226.13;;;12.64;100.00
19624;BME280;9959;49.798;9.928;2023-11-19T11:16:56;99245.63;;;12.66;100.00
19624;BME280;9959;49.798;9.928;2023-11-19T11:19:25;99242.13;;;12.66;100.00
19624;BME280;9959;49.798;9.928;2023-11-19T11:21:53;99244.09;;;12.59;100.00
19624;BME280;9959;49.798;9.928;2023-11-19T11:27:48;99247.97;;;12.86;100.00
19624;BME280;9959;49.798;9.928;2023-11-19T11:33:14;99241.97;;;13.31;100.00
19624;BME280;9959;49.798;9.928;2023-11-19T11:38:40;99234.97;;;17.65;74.05
19624;BME280;9959;49.798;9.928;2023-11-19T11:41:24;99237.91;;;14.35;97.83
19624;BME280;9959;49.798;9.928;2023-11-19T11:43:56;99235.53;;;15.11;92.50
19624;BME280;9959;49.798;9.928;2023-11-19T11:49:03;99242.03;;;14.54;97.67
19624;BME280;9959;49.798;9.928;2023-11-19T11:57:08;99224.78;;;13.37;100.00
19624;BME280;9959;49.798;9.928;2023-11-19T11:59:49;99224.81;;;13.53;100.00
19624;BME280;9959;49.798;9.928;2023-11-19T12:02:19;99225.66;;;13.42;100.00
19624;BME280;9959;49.798;9.928;2023-11-19T12:04:52;99235.50;;;13.20;100.00
19624;BME280;9959;49.798;9.928;2023-11-19T12:07:24;99231.38;;;13.17;100.00
19624;BME280;9959;49.798;9.928;2023-11-19T12:09:53;99215.16;;;13.17;100.00
19624;BME280;9959;49.798;9.928;2023-11-19T12:12:27;99234.69;;;13.19;100.00
19624;BME280;9959;49.798;9.928;2023-11-19T12:15:05;99233.72;;;13.14;100.00
19624;BME280;9959;49.798;9.928;2023-11-19T12:20:05;99242.50;;;13.44;100.00
19624;BME280;9959;49.798;9.928;2023-11-19T12:22:40;99225.38;;;13.67;100.00
19624;BME280;9959;49.798;9.928;2023-11-19T12:25:09;99237.75;;;14.25;98.83
19624;BME280;9959;49.798;9.928;2023-11-19T12:27:49;99217.50;;;17.60;74.49
19624;BME280;9959;49.798;9.928;2023-11-19T12:30:23;99216.97;;;17.01;74.19
19624;BME280;9959;49.798;9.928;2023-11-19T12:32:53;99216.22;;;17.73;69.47
19624;BME280;9959;49.798;9.928;2023-11-19T12:35:21;99212.44;;;18.71;64.07
19624;BME280;9959;49.798;9.928;2023-11-19T12:37:50;99220.00;;;16.63;72.14
19624;BME280;9959;49.798;9.928;2023-11-19T12:40:19;99199.25;;;20.12;58.53
19624;BME280;9959;49.798;9.928;2023-11-19T12:42:54;99201.97;;;19.73;58.17
19624;BME280;9959;49.798;9.928;2023-11-19T12:45:22;99202.38;;;18.20;63.13
19624;BME280;9959;49.798;9.928;2023-11-19T12:48:04;99180.66;;;16.38;71.47
19624;BME280;9959;49.798;9.928;2023-11-19T12:53:17;99188.28;;;15.29;79.16
19624;BME280;9959;49.798;9.928;2023-11-19T12:55:45;99192.44;;;15.14;79.97
19624;BME280;9959;49.798;9.928;2023-11-19T12:58:31;99203.69;;;15.99;71.90
19624;BME280;9959;49.798;9.928;2023-11-19T13:01:05;99205.56;;;15.93;73.12
19624;BME280;9959;49.798;9.928;2023-11-19T13:03:36;99200.09;;;16.20;70.48
19624;BME280;9959;49.798;9.928;2023-11-19T13:06:08;99190.53;;;15.37;72.65
19624;BME280;9959;49.798;9.928;2023-11-19T13:08:39;99183.88;;;15.22;75.63
19624;BME280;9959;49.798;9.928;2023-11-19T13:11:07;99188.78;;;17.17;66.55
19624;BME280;9959;49.798;9.928;2023-11-19T13:16:23;99188.19;;;19.93;56.37
19624;BME280;9959;49.798;9.928;2023-11-19T13:18:50;99183.97;;;19.12;59.27
19624;BME280;9959;49.798;9.928;2023-11-19T13:21:18;99178.91;;;18.60;59.16
19624;BME280;9959;49.798;9.928;2023-11-19T13:23:45;99183.50;;;18.85;60.92
19624;BME280;9959;49.798;9.928;2023-11-19T13:26:12;99177.44;;;20.70;54.03
19624;BME280;9959;49.798;9.928;2023-11-19T13:28:39;99167.13;;;21.89;49.88
19624;BME280;9959;49.798;9.928;2023-11-19T13:31:06;99151.94;;;21.22;50.83
19624;BME280;9959;49.798;9.928;2023-11-19T13:33:34;99151.66;;;20.13;53.51
19624;BME280;9959;49.798;9.928;2023-11-19T13:36:02;99140.47;;;21.39;51.15
19624;BME280;9959;49.798;9.928;2023-11-19T13:38:35;99136.47;;;19.08;56.24
19624;BME280;9959;49.798;9.928;2023-11-19T13:41:03;99146.44;;;18.43;58.46